sensor_id;sensor_type;location;lat;lon;timestamp;temperature;humidity
45491;DHT22;31237;45.586;13.782;2023-04-15T00:01:22;8.50;96.80
45491;DHT22;31237;45.586;13.782;2023-04-15T00:03:51;8.50;96.90
45491;DHT22;31237;45.586;13.782;2023-04-15T00:06:20;8.50;96.90
45491;DHT22;31237;45.586;13.782;2023-04-15T00:08:46;8.50;96.90
45491;DHT22;31237;45.586;13.782;2023-04-15T00:11:13;8.50;96.90
45491;DHT22;31237;45.586;13.782;2023-04-15T00:13:39;8.50;96.90
45491;DHT22;31237;45.586;13.782;2023-04-15T00:16:07;8.40;96.90
45491;DHT22;31237;45.586;13.782;2023-04-15T00:18:33;8.40;96.90
45491;DHT22;31237;45.586;13.782;2023-04-15T00:20:59;8.40;96.90
45491;DHT22;31237;45.586;13.782;2023-04-15T00:23:25;8.40;96.90
45491;DHT22;31237;45.586;13.782;2023-04-15T00:25:51;8.40;97.00
45491;DHT22;31237;45.586;13.782;2023-04-15T00:28:17;8.40;97.00
45491;DHT22;31237;45.586;13.782;2023-04-15T00:30:51;8.40;97.10
45491;DHT22;31237;45.586;13.782;2023-04-15T00:33:18;8.30;97.10
45491;DHT22;31237;45.586;13.782;2023-04-15T00:35:44;8.30;97.10
45491;DHT22;31237;45.586;13.782;2023-04-15T00:38:10;8.30;97.10
45491;DHT22;31237;45.586;13.782;2023-04-15T00:40:36;8.30;97.10
45491;DHT22;31237;45.586;13.782;2023-04-15T00:43:02;8.30;97.10
45491;DHT22;31237;45.586;13.782;2023-04-15T00:45:29;8.30;97.20
45491;DHT22;31237;45.586;13.782;2023-04-15T00:47:55;8.30;97.20
45491;DHT22;31237;45.586;13.782;2023-04-15T00:50:21;8.30;97.30
45491;DHT22;31237;45.586;13.782;2023-04-15T00:52:47;8.30;97.30
45491;DHT22;31237;45.586;13.782;2023-04-15T00:55:13;8.30;97.30
45491;DHT22;31237;45.586;13.782;2023-04-15T00:57:39;8.30;97.30
45491;DHT22;31237;45.586;13.782;2023-04-15T01:00:06;8.30;97.30
45491;DHT22;31237;45.586;13.782;2023-04-15T01:02:34;8.30;97.30
45491;DHT22;31237;45.586;13.782;2023-04-15T01:05:01;8.30;97.40
45491;DHT22;31237;45.586;13.782;2023-04-15T01:07:26;8.30;97.30
45491;DHT22;31237;45.586;13.782;2023-04-15T01:09:52;8.20;97.30
45491;DHT22;31237;45.586;13.782;2023-04-15T01:12:18;8.20;97.30
45491;DHT22;31237;45.586;13.782;2023-04-15T01:14:45;8.20;97.30
45491;DHT22;31237;45.586;13.782;2023-04-15T01:17:11;8.20;97.40
45491;DHT22;31237;45.586;13.782;2023-04-15T01:19:37;8.20;97.40
45491;DHT22;31237;45.586;13.782;2023-04-15T01:22:04;8.20;97.40
45491;DHT22;31237;45.586;13.782;2023-04-15T01:24:31;8.20;97.50
45491;DHT22;31237;45.586;13.782;2023-04-15T01:26:57;8.10;97.50
45491;DHT22;31237;45.586;13.782;2023-04-15T01:29:23;8.20;97.50
45491;DHT22;31237;45.586;13.782;2023-04-15T01:31:53;8.10;97.50
45491;DHT22;31237;45.586;13.782;2023-04-15T01:34:20;8.10;97.50
45491;DHT22;31237;45.586;13.782;2023-04-15T01:36:46;8.10;97.50
45491;DHT22;31237;45.586;13.782;2023-04-15T01:39:12;8.00;97.40
45491;DHT22;31237;45.586;13.782;2023-04-15T01:41:38;8.00;97.40
45491;DHT22;31237;45.586;13.782;2023-04-15T01:44:05;8.00;97.40
45491;DHT22;31237;45.586;13.782;2023-04-15T01:46:32;8.00;97.40
45491;DHT22;31237;45.586;13.782;2023-04-15T01:48:57;8.00;97.40
45491;DHT22;31237;45.586;13.782;2023-04-15T01:51:23;8.00;97.40
45491;DHT22;31237;45.586;13.782;2023-04-15T01:53:49;8.00;97.40
45491;DHT22;31237;45.586;13.782;2023-04-15T01:56:14;7.90;97.40
45491;DHT22;31237;45.586;13.782;2023-04-15T01:58:40;7.90;97.40
45491;DHT22;31237;45.586;13.782;2023-04-15T02:01:12;7.90;97.40
45491;DHT22;31237;45.586;13.782;2023-04-15T02:03:41;7.90;97.50
45491;DHT22;31237;45.586;13.782;2023-04-15T02:06:07;7.90;97.50
45491;DHT22;31237;45.586;13.782;2023-04-15T02:08:32;7.90;97.50
45491;DHT22;31237;45.586;13.782;2023-04-15T02:10:58;7.80;97.50
45491;DHT22;31237;45.586;13.782;2023-04-15T02:13:25;7.80;97.50
45491;DHT22;31237;45.586;13.782;2023-04-15T02:15:51;7.80;97.50
45491;DHT22;31237;45.586;13.782;2023-04-15T02:18:17;7.80;97.60
45491;DHT22;31237;45.586;13.782;2023-04-15T02:20:43;7.80;97.60
45491;DHT22;31237;45.586;13.782;2023-04-15T02:23:09;7.80;97.60
45491;DHT22;31237;45.586;13.782;2023-04-15T02:25:36;7.80;97.60
45491;DHT22;31237;45.586;13.782;2023-04-15T02:28:04;7.80;97.60
45491;DHT22;31237;45.586;13.782;2023-04-15T02:30:31;7.80;97.60
45491;DHT22;31237;45.586;13.782;2023-04-15T02:32:56;7.80;97.60
45491;DHT22;31237;45.586;13.782;2023-04-15T02:35:22;7.80;97.60
45491;DHT22;31237;45.586;13.782;2023-04-15T02:37:50;7.70;97.60
45491;DHT22;31237;45.586;13.782;2023-04-15T02:40:16;7.70;97.60
45491;DHT22;31237;45.586;13.782;2023-04-15T02:42:42;7.70;97.60
45491;DHT22;31237;45.586;13.782;2023-04-15T02:45:09;7.70;97.70
45491;DHT22;31237;45.586;13.782;2023-04-15T02:47:36;7.70;97.70
45491;DHT22;31237;45.586;13.782;2023-04-15T02:50:10;7.70;97.70
45491;DHT22;31237;45.586;13.782;2023-04-15T02:52:41;7.70;97.70
45491;DHT22;31237;45.586;13.782;2023-04-15T02:55:07;7.70;97.80
45491;DHT22;31237;45.586;13.782;2023-04-15T02:57:34;7.70;97.80
45491;DHT22;31237;45.586;13.782;2023-04-15T03:00:02;7.70;97.80
45491;DHT22;31237;45.586;13.782;2023-04-15T03:02:33;7.70;97.80
45491;DHT22;31237;45.586;13.782;2023-04-15T03:04:59;7.70;97.90
45491;DHT22;31237;45.586;13.782;2023-04-15T03:07:25;7.70;97.90
45491;DHT22;31237;45.586;13.782;2023-04-15T03:09:51;7.80;97.90
45491;DHT22;31237;45.586;13.782;2023-04-15T03:12:17;7.80;97.90
45491;DHT22;31237;45.586;13.782;2023-04-15T03:14:42;7.80;97.90
45491;DHT22;31237;45.586;13.782;2023-04-15T03:17:08;7.80;97.90
45491;DHT22;31237;45.586;13.782;2023-04-15T03:19:34;7.80;97.90
45491;DHT22;31237;45.586;13.782;2023-04-15T03:21:59;7.80;98.00
45491;DHT22;31237;45.586;13.782;2023-04-15T03:24:25;7.80;98.00
45491;DHT22;31237;45.586;13.782;2023-04-15T03:26:51;7.80;98.00
45491;DHT22;31237;45.586;13.782;2023-04-15T03:29:17;7.80;98.00
45491;DHT22;31237;45.586;13.782;2023-04-15T03:31:45;7.80;98.00
45491;DHT22;31237;45.586;13.782;2023-04-15T03:34:16;7.80;98.00
45491;DHT22;31237;45.586;13.782;2023-04-15T03:36:42;7.90;98.00
45491;DHT22;31237;45.586;13.782;2023-04-15T03:39:07;7.80;98.00
45491;DHT22;31237;45.586;13.782;2023-04-15T03:41:33;7.80;98.00
45491;DHT22;31237;45.586;13.782;2023-04-15T03:43:59;7.90;98.10
45491;DHT22;31237;45.586;13.782;2023-04-15T03:46:25;7.90;98.10
45491;DHT22;31237;45.586;13.782;2023-04-15T03:48:51;7.90;98.10
45491;DHT22;31237;45.586;13.782;2023-04-15T03:51:16;7.90;98.10
45491;DHT22;31237;45.586;13.782;2023-04-15T03:53:42;7.90;98.10
45491;DHT22;31237;45.586;13.782;2023-04-15T03:56:08;7.90;98.00
45491;DHT22;31237;45.586;13.782;2023-04-15T03:58:33;7.90;98.00
45491;DHT22;31237;45.586;13.782;2023-04-15T04:00:59;7.90;98.00
45491;DHT22;31237;45.586;13.782;2023-04-15T04:03:24;7.90;98.00
45491;DHT22;31237;45.586;13.782;2023-04-15T04:05:50;7.90;98.00
45491;DHT22;31237;45.586;13.782;2023-04-15T04:08:16;7.90;98.00
45491;DHT22;31237;45.586;13.782;2023-04-15T04:10:43;7.90;97.90
45491;DHT22;31237;45.586;13.782;2023-04-15T04:13:09;7.90;98.00
45491;DHT22;31237;45.586;13.782;2023-04-15T04:15:35;7.80;97.90
45491;DHT22;31237;45.586;13.782;2023-04-15T04:18:01;7.80;98.00
45491;DHT22;31237;45.586;13.782;2023-04-15T04:20:26;7.80;98.00
45491;DHT22;31237;45.586;13.782;2023-04-15T04:22:52;7.80;98.00
45491;DHT22;31237;45.586;13.782;2023-04-15T04:25:18;7.80;98.10
45491;DHT22;31237;45.586;13.782;2023-04-15T04:27:43;7.80;98.10
45491;DHT22;31237;45.586;13.782;2023-04-15T04:30:10;7.70;98.10
45491;DHT22;31237;45.586;13.782;2023-04-15T04:32:38;7.70;98.10
45491;DHT22;31237;45.586;13.782;2023-04-15T04:35:04;7.70;98.10
45491;DHT22;31237;45.586;13.782;2023-04-15T04:37:30;7.70;98.20
45491;DHT22;31237;45.586;13.782;2023-04-15T04:39:56;7.70;98.30
45491;DHT22;31237;45.586;13.782;2023-04-15T04:42:21;7.70;98.30
45491;DHT22;31237;45.586;13.782;2023-04-15T04:44:47;7.70;98.40
45491;DHT22;31237;45.586;13.782;2023-04-15T04:47:13;7.70;98.40
45491;DHT22;31237;45.586;13.782;2023-04-15T04:49:38;7.70;98.50
45491;DHT22;31237;45.586;13.782;2023-04-15T04:52:05;7.70;98.50
45491;DHT22;31237;45.586;13.782;2023-04-15T04:54:31;7.80;98.60
45491;DHT22;31237;45.586;13.782;2023-04-15T04:56:57;7.80;98.60
45491;DHT22;31237;45.586;13.782;2023-04-15T04:59:23;7.80;98.60
45491;DHT22;31237;45.586;13.782;2023-04-15T05:01:49;7.80;98.60
45491;DHT22;31237;45.586;13.782;2023-04-15T05:04:15;7.80;98.70
45491;DHT22;31237;45.586;13.782;2023-04-15T05:06:40;7.80;98.70
45491;DHT22;31237;45.586;13.782;2023-04-15T05:09:06;7.90;98.70
45491;DHT22;31237;45.586;13.782;2023-04-15T05:11:32;7.90;98.80
45491;DHT22;31237;45.586;13.782;2023-04-15T05:13:58;7.90;98.80
45491;DHT22;31237;45.586;13.782;2023-04-15T05:16:26;8.00;98.80
45491;DHT22;31237;45.586;13.782;2023-04-15T05:18:52;8.00;98.80
45491;DHT22;31237;45.586;13.782;2023-04-15T05:21:18;8.00;98.80
45491;DHT22;31237;45.586;13.782;2023-04-15T05:23:44;8.10;98.80
45491;DHT22;31237;45.586;13.782;2023-04-15T05:26:10;8.10;98.80
45491;DHT22;31237;45.586;13.782;2023-04-15T05:28:36;8.20;98.80
45491;DHT22;31237;45.586;13.782;2023-04-15T05:31:02;8.20;98.80
45491;DHT22;31237;45.586;13.782;2023-04-15T05:33:27;8.30;98.80
45491;DHT22;31237;45.586;13.782;2023-04-15T05:35:53;8.40;98.70
45491;DHT22;31237;45.586;13.782;2023-04-15T05:38:18;8.40;98.70
45491;DHT22;31237;45.586;13.782;2023-04-15T05:40:44;8.40;98.60
45491;DHT22;31237;45.586;13.782;2023-04-15T05:43:10;8.50;98.60
45491;DHT22;31237;45.586;13.782;2023-04-15T05:45:36;8.50;98.60
45491;DHT22;31237;45.586;13.782;2023-04-15T05:48:01;8.60;98.50
45491;DHT22;31237;45.586;13.782;2023-04-15T05:50:27;8.60;98.50
45491;DHT22;31237;45.586;13.782;2023-04-15T05:52:53;8.70;98.50
45491;DHT22;31237;45.586;13.782;2023-04-15T05:55:18;8.70;98.50
45491;DHT22;31237;45.586;13.782;2023-04-15T05:57:44;8.80;98.40
45491;DHT22;31237;45.586;13.782;2023-04-15T06:00:10;8.90;98.40
45491;DHT22;31237;45.586;13.782;2023-04-15T06:02:36;8.90;98.40
45491;DHT22;31237;45.586;13.782;2023-04-15T06:05:05;9.00;98.30
45491;DHT22;31237;45.586;13.782;2023-04-15T06:07:36;9.10;98.30
45491;DHT22;31237;45.586;13.782;2023-04-15T06:10:03;9.20;98.30
45491;DHT22;31237;45.586;13.782;2023-04-15T06:12:29;9.30;98.30
45491;DHT22;31237;45.586;13.782;2023-04-15T06:14:55;9.40;98.20
45491;DHT22;31237;45.586;13.782;2023-04-15T06:17:21;9.40;98.10
45491;DHT22;31237;45.586;13.782;2023-04-15T06:19:47;9.50;98.00
45491;DHT22;31237;45.586;13.782;2023-04-15T06:22:14;9.60;97.90
45491;DHT22;31237;45.586;13.782;2023-04-15T06:24:41;9.70;97.80
45491;DHT22;31237;45.586;13.782;2023-04-15T06:27:06;9.80;97.70
45491;DHT22;31237;45.586;13.782;2023-04-15T06:29:32;9.80;97.60
45491;DHT22;31237;45.586;13.782;2023-04-15T06:31:58;9.90;97.60
45491;DHT22;31237;45.586;13.782;2023-04-15T06:34:23;10.00;97.50
45491;DHT22;31237;45.586;13.782;2023-04-15T06:36:49;10.00;97.50
45491;DHT22;31237;45.586;13.782;2023-04-15T06:39:15;10.10;97.40
45491;DHT22;31237;45.586;13.782;2023-04-15T06:41:40;10.20;97.40
45491;DHT22;31237;45.586;13.782;2023-04-15T06:44:06;10.30;97.20
45491;DHT22;31237;45.586;13.782;2023-04-15T06:46:32;10.40;96.90
45491;DHT22;31237;45.586;13.782;2023-04-15T06:48:58;10.50;96.80
45491;DHT22;31237;45.586;13.782;2023-04-15T06:51:23;10.50;96.60
45491;DHT22;31237;45.586;13.782;2023-04-15T06:53:50;10.60;96.50
45491;DHT22;31237;45.586;13.782;2023-04-15T06:56:16;10.70;96.40
45491;DHT22;31237;45.586;13.782;2023-04-15T06:58:42;10.90;96.20
45491;DHT22;31237;45.586;13.782;2023-04-15T07:01:09;10.90;96.10
45491;DHT22;31237;45.586;13.782;2023-04-15T07:03:35;11.10;95.90
45491;DHT22;31237;45.586;13.782;2023-04-15T07:06:01;11.20;95.70
45491;DHT22;31237;45.586;13.782;2023-04-15T07:08:31;11.30;95.60
45491;DHT22;31237;45.586;13.782;2023-04-15T07:10:57;11.40;95.40
45491;DHT22;31237;45.586;13.782;2023-04-15T07:13:22;11.60;95.30
45491;DHT22;31237;45.586;13.782;2023-04-15T07:15:48;11.70;95.00
45491;DHT22;31237;45.586;13.782;2023-04-15T07:18:14;11.80;94.80
45491;DHT22;31237;45.586;13.782;2023-04-15T07:20:39;11.90;94.60
45491;DHT22;31237;45.586;13.782;2023-04-15T07:23:05;11.90;94.40
45491;DHT22;31237;45.586;13.782;2023-04-15T07:25:31;12.00;94.20
45491;DHT22;31237;45.586;13.782;2023-04-15T07:27:57;12.00;94.10
45491;DHT22;31237;45.586;13.782;2023-04-15T07:30:23;12.10;93.90
45491;DHT22;31237;45.586;13.782;2023-04-15T07:32:48;12.10;93.80
45491;DHT22;31237;45.586;13.782;2023-04-15T07:35:14;12.20;93.60
45491;DHT22;31237;45.586;13.782;2023-04-15T07:37:40;12.20;93.40
45491;DHT22;31237;45.586;13.782;2023-04-15T07:40:08;12.20;93.30
45491;DHT22;31237;45.586;13.782;2023-04-15T07:42:34;12.30;93.10
45491;DHT22;31237;45.586;13.782;2023-04-15T07:45:00;12.30;93.10
45491;DHT22;31237;45.586;13.782;2023-04-15T07:47:25;12.30;93.20
45491;DHT22;31237;45.586;13.782;2023-04-15T07:49:51;12.40;93.20
45491;DHT22;31237;45.586;13.782;2023-04-15T07:52:17;12.50;93.10
45491;DHT22;31237;45.586;13.782;2023-04-15T07:54:44;12.60;93.00
45491;DHT22;31237;45.586;13.782;2023-04-15T07:57:10;12.60;92.80
45491;DHT22;31237;45.586;13.782;2023-04-15T07:59:35;12.70;92.60
45491;DHT22;31237;45.586;13.782;2023-04-15T08:02:01;12.80;92.60
45491;DHT22;31237;45.586;13.782;2023-04-15T08:04:27;12.90;92.50
45491;DHT22;31237;45.586;13.782;2023-04-15T08:06:53;13.00;92.30
45491;DHT22;31237;45.586;13.782;2023-04-15T08:09:19;13.10;92.20
45491;DHT22;31237;45.586;13.782;2023-04-15T08:11:48;13.10;91.90
45491;DHT22;31237;45.586;13.782;2023-04-15T08:14:13;13.20;91.80
45491;DHT22;31237;45.586;13.782;2023-04-15T08:16:40;13.20;91.70
45491;DHT22;31237;45.586;13.782;2023-04-15T08:19:06;13.30;91.50
45491;DHT22;31237;45.586;13.782;2023-04-15T08:21:31;13.30;91.30
45491;DHT22;31237;45.586;13.782;2023-04-15T08:23:57;13.40;91.10
45491;DHT22;31237;45.586;13.782;2023-04-15T08:26:24;13.40;91.00
45491;DHT22;31237;45.586;13.782;2023-04-15T08:28:50;13.40;90.90
45491;DHT22;31237;45.586;13.782;2023-04-15T08:31:17;13.50;90.90
45491;DHT22;31237;45.586;13.782;2023-04-15T08:33:43;13.60;90.80
45491;DHT22;31237;45.586;13.782;2023-04-15T08:36:09;13.60;90.50
45491;DHT22;31237;45.586;13.782;2023-04-15T08:38:35;13.70;90.30
45491;DHT22;31237;45.586;13.782;2023-04-15T08:41:17;13.70;90.30
45491;DHT22;31237;45.586;13.782;2023-04-15T08:43:53;13.80;90.10
45491;DHT22;31237;45.586;13.782;2023-04-15T08:46:21;13.90;89.70
45491;DHT22;31237;45.586;13.782;2023-04-15T08:48:48;14.00;89.20
45491;DHT22;31237;45.586;13.782;2023-04-15T08:51:14;14.10;88.90
45491;DHT22;31237;45.586;13.782;2023-04-15T08:53:42;14.10;88.40
45491;DHT22;31237;45.586;13.782;2023-04-15T08:56:09;14.20;87.90
45491;DHT22;31237;45.586;13.782;2023-04-15T08:58:36;14.30;87.50
45491;DHT22;31237;45.586;13.782;2023-04-15T09:01:02;14.40;87.20
45491;DHT22;31237;45.586;13.782;2023-04-15T09:03:29;14.40;86.80
45491;DHT22;31237;45.586;13.782;2023-04-15T09:06:03;14.50;86.00
45491;DHT22;31237;45.586;13.782;2023-04-15T09:08:31;14.60;85.40
45491;DHT22;31237;45.586;13.782;2023-04-15T09:10:58;14.60;85.10
45491;DHT22;31237;45.586;13.782;2023-04-15T09:13:24;14.70;84.70
45491;DHT22;31237;45.586;13.782;2023-04-15T09:15:50;14.80;84.80
45491;DHT22;31237;45.586;13.782;2023-04-15T09:18:33;14.90;84.60
45491;DHT22;31237;45.586;13.782;2023-04-15T09:21:08;14.90;83.90
45491;DHT22;31237;45.586;13.782;2023-04-15T09:23:36;15.00;83.10
45491;DHT22;31237;45.586;13.782;2023-04-15T09:26:02;15.00;82.70
45491;DHT22;31237;45.586;13.782;2023-04-15T09:28:29;15.10;82.70
45491;DHT22;31237;45.586;13.782;2023-04-15T09:30:59;15.10;82.80
45491;DHT22;31237;45.586;13.782;2023-04-15T09:33:26;15.30;83.30
45491;DHT22;31237;45.586;13.782;2023-04-15T09:36:00;15.40;82.70
45491;DHT22;31237;45.586;13.782;2023-04-15T09:38:27;15.50;82.20
45491;DHT22;31237;45.586;13.782;2023-04-15T09:40:52;15.60;81.60
45491;DHT22;31237;45.586;13.782;2023-04-15T09:43:19;15.60;81.60
45491;DHT22;31237;45.586;13.782;2023-04-15T09:45:50;15.70;80.60
45491;DHT22;31237;45.586;13.782;2023-04-15T09:48:24;15.70;80.60
45491;DHT22;31237;45.586;13.782;2023-04-15T09:50:51;15.70;80.70
45491;DHT22;31237;45.586;13.782;2023-04-15T09:53:23;15.80;80.60
45491;DHT22;31237;45.586;13.782;2023-04-15T09:55:53;15.80;80.60
45491;DHT22;31237;45.586;13.782;2023-04-15T09:58:21;16.00;80.60
45491;DHT22;31237;45.586;13.782;2023-04-15T10:00:48;16.10;80.80
45491;DHT22;31237;45.586;13.782;2023-04-15T10:03:23;16.40;80.10
45491;DHT22;31237;45.586;13.782;2023-04-15T10:05:51;16.50;78.70
45491;DHT22;31237;45.586;13.782;2023-04-15T10:08:19;16.70;78.80
45491;DHT22;31237;45.586;13.782;2023-04-15T10:10:46;16.80;78.60
45491;DHT22;31237;45.586;13.782;2023-04-15T10:13:17;17.00;78.50
45491;DHT22;31237;45.586;13.782;2023-04-15T10:15:44;17.10;77.40
45491;DHT22;31237;45.586;13.782;2023-04-15T10:18:15;17.30;76.90
45491;DHT22;31237;45.586;13.782;2023-04-15T10:20:43;17.30;76.20
45491;DHT22;31237;45.586;13.782;2023-04-15T10:23:11;17.30;75.00
45491;DHT22;31237;45.586;13.782;2023-04-15T10:25:37;17.30;75.10
45491;DHT22;31237;45.586;13.782;2023-04-15T10:28:07;17.30;74.80
45491;DHT22;31237;45.586;13.782;2023-04-15T10:30:34;17.30;74.00
45491;DHT22;31237;45.586;13.782;2023-04-15T10:33:02;17.30;73.50
45491;DHT22;31237;45.586;13.782;2023-04-15T10:35:29;17.30;72.70
45491;DHT22;31237;45.586;13.782;2023-04-15T10:37:55;17.20;72.40
45491;DHT22;31237;45.586;13.782;2023-04-15T10:40:39;17.10;72.00
45491;DHT22;31237;45.586;13.782;2023-04-15T10:43:05;17.10;71.50
45491;DHT22;31237;45.586;13.782;2023-04-15T10:45:35;16.90;69.90
45491;DHT22;31237;45.586;13.782;2023-04-15T10:48:03;17.00;70.30
45491;DHT22;31237;45.586;13.782;2023-04-15T10:50:31;17.00;70.40
45491;DHT22;31237;45.586;13.782;2023-04-15T10:52:58;17.00;69.60
45491;DHT22;31237;45.586;13.782;2023-04-15T10:55:25;17.00;69.60
45491;DHT22;31237;45.586;13.782;2023-04-15T10:57:58;16.90;69.90
45491;DHT22;31237;45.586;13.782;2023-04-15T11:00:27;16.90;68.70
45491;DHT22;31237;45.586;13.782;2023-04-15T11:02:54;16.90;69.00
45491;DHT22;31237;45.586;13.782;2023-04-15T11:08:07;16.80;70.20
45491;DHT22;31237;45.586;13.782;2023-04-15T11:13:04;16.70;70.90
45491;DHT22;31237;45.586;13.782;2023-04-15T11:15:44;16.50;71.20
45491;DHT22;31237;45.586;13.782;2023-04-15T11:18:20;16.20;72.20
45491;DHT22;31237;45.586;13.782;2023-04-15T11:20:51;16.10;72.50
45491;DHT22;31237;45.586;13.782;2023-04-15T11:23:40;15.90;72.40
45491;DHT22;31237;45.586;13.782;2023-04-15T11:26:09;15.60;72.80
45491;DHT22;31237;45.586;13.782;2023-04-15T11:28:37;15.30;74.00
45491;DHT22;31237;45.586;13.782;2023-04-15T11:31:12;15.10;75.70
45491;DHT22;31237;45.586;13.782;2023-04-15T11:34:05;14.90;77.00
45491;DHT22;31237;45.586;13.782;2023-04-15T11:36:30;14.60;78.10
45491;DHT22;31237;45.586;13.782;2023-04-15T11:38:57;14.30;79.20
45491;DHT22;31237;45.586;13.782;2023-04-15T11:41:23;14.10;80.00
45491;DHT22;31237;45.586;13.782;2023-04-15T11:43:50;13.90;80.50
45491;DHT22;31237;45.586;13.782;2023-04-15T11:46:16;13.80;80.50
45491;DHT22;31237;45.586;13.782;2023-04-15T11:48:44;13.70;80.50
45491;DHT22;31237;45.586;13.782;2023-04-15T11:51:10;13.60;80.30
45491;DHT22;31237;45.586;13.782;2023-04-15T11:53:49;13.60;80.80
45491;DHT22;31237;45.586;13.782;2023-04-15T11:56:20;13.40;81.50
45491;DHT22;31237;45.586;13.782;2023-04-15T11:58:46;13.30;83.30
45491;DHT22;31237;45.586;13.782;2023-04-15T12:01:14;13.20;84.10
45491;DHT22;31237;45.586;13.782;2023-04-15T12:03:44;13.10;85.10
45491;DHT22;31237;45.586;13.782;2023-04-15T12:06:22;13.10;86.80
45491;DHT22;31237;45.586;13.782;2023-04-15T12:09:11;13.00;86.90
45491;DHT22;31237;45.586;13.782;2023-04-15T12:14:31;12.90;88.60
45491;DHT22;31237;45.586;13.782;2023-04-15T12:17:01;12.80;88.70
45491;DHT22;31237;45.586;13.782;2023-04-15T12:19:29;12.70;89.00
45491;DHT22;31237;45.586;13.782;2023-04-15T12:22:01;12.70;89.40
45491;DHT22;31237;45.586;13.782;2023-04-15T12:24:30;12.70;89.70
45491;DHT22;31237;45.586;13.782;2023-04-15T12:26:59;12.70;90.00
45491;DHT22;31237;45.586;13.782;2023-04-15T12:29:28;12.70;90.10
45491;DHT22;31237;45.586;13.782;2023-04-15T12:31:56;12.80;89.50
45491;DHT22;31237;45.586;13.782;2023-04-15T12:34:30;12.80;88.90
45491;DHT22;31237;45.586;13.782;2023-04-15T12:36:57;12.90;88.80
45491;DHT22;31237;45.586;13.782;2023-04-15T12:39:26;12.90;87.90
45491;DHT22;31237;45.586;13.782;2023-04-15T12:41:53;12.90;87.40
45491;DHT22;31237;45.586;13.782;2023-04-15T12:44:20;13.00;87.40
45491;DHT22;31237;45.586;13.782;2023-04-15T12:46:47;13.00;87.00
45491;DHT22;31237;45.586;13.782;2023-04-15T12:49:12;13.10;87.00
45491;DHT22;31237;45.586;13.782;2023-04-15T12:51:45;13.10;86.30
45491;DHT22;31237;45.586;13.782;2023-04-15T12:54:11;13.20;85.00
45491;DHT22;31237;45.586;13.782;2023-04-15T12:56:37;13.20;85.70
45491;DHT22;31237;45.586;13.782;2023-04-15T12:59:02;13.30;85.30
45491;DHT22;31237;45.586;13.782;2023-04-15T13:01:28;13.40;84.90
45491;DHT22;31237;45.586;13.782;2023-04-15T13:03:54;13.40;84.30
45491;DHT22;31237;45.586;13.782;2023-04-15T13:06:20;13.50;83.90
45491;DHT22;31237;45.586;13.782;2023-04-15T13:08:46;13.50;83.60
45491;DHT22;31237;45.586;13.782;2023-04-15T13:11:11;13.50;83.50
45491;DHT22;31237;45.586;13.782;2023-04-15T13:13:37;13.60;83.20
45491;DHT22;31237;45.586;13.782;2023-04-15T13:16:03;13.60;82.90
45491;DHT22;31237;45.586;13.782;2023-04-15T13:18:29;13.50;82.50
45491;DHT22;31237;45.586;13.782;2023-04-15T13:20:55;13.50;82.20
45491;DHT22;31237;45.586;13.782;2023-04-15T13:23:21;13.40;82.80
45491;DHT22;31237;45.586;13.782;2023-04-15T13:25:47;13.30;83.00
45491;DHT22;31237;45.586;13.782;2023-04-15T13:28:12;13.20;83.30
45491;DHT22;31237;45.586;13.782;2023-04-15T13:30:38;13.20;83.40
45491;DHT22;31237;45.586;13.782;2023-04-15T13:33:05;13.20;83.60
45491;DHT22;31237;45.586;13.782;2023-04-15T13:35:31;13.10;83.20
45491;DHT22;31237;45.586;13.782;2023-04-15T13:37:57;13.00;83.50
45491;DHT22;31237;45.586;13.782;2023-04-15T13:40:22;13.00;83.30
45491;DHT22;31237;45.586;13.782;2023-04-15T13:42:50;12.90;83.30
45491;DHT22;31237;45.586;13.782;2023-04-15T13:45:17;12.90;83.10
45491;DHT22;31237;45.586;13.782;2023-04-15T13:47:43;12.90;83.30
45491;DHT22;31237;45.586;13.782;2023-04-15T13:50:09;12.90;83.10
45491;DHT22;31237;45.586;13.782;2023-04-15T13:52:35;12.80;83.30
45491;DHT22;31237;45.586;13.782;2023-04-15T13:55:02;12.80;83.70
45491;DHT22;31237;45.586;13.782;2023-04-15T13:57:28;12.80;84.00
45491;DHT22;31237;45.586;13.782;2023-04-15T13:59:54;12.70;84.00
45491;DHT22;31237;45.586;13.782;2023-04-15T14:02:20;12.80;84.00
45491;DHT22;31237;45.586;13.782;2023-04-15T14:04:45;12.90;84.20
45491;DHT22;31237;45.586;13.782;2023-04-15T14:07:11;13.00;84.20
45491;DHT22;31237;45.586;13.782;2023-04-15T14:09:37;13.10;83.90
45491;DHT22;31237;45.586;13.782;2023-04-15T14:12:03;13.10;84.30
45491;DHT22;31237;45.586;13.782;2023-04-15T14:14:29;13.10;85.20
45491;DHT22;31237;45.586;13.782;2023-04-15T14:16:55;13.10;84.80
45491;DHT22;31237;45.586;13.782;2023-04-15T14:19:21;13.10;85.00
45491;DHT22;31237;45.586;13.782;2023-04-15T14:21:46;13.10;85.00
45491;DHT22;31237;45.586;13.782;2023-04-15T14:24:12;13.10;84.50
45491;DHT22;31237;45.586;13.782;2023-04-15T14:26:38;13.10;84.10
45491;DHT22;31237;45.586;13.782;2023-04-15T14:29:03;13.00;84.10
45491;DHT22;31237;45.586;13.782;2023-04-15T14:31:29;13.00;84.20
45491;DHT22;31237;45.586;13.782;2023-04-15T14:33:55;12.90;84.30
45491;DHT22;31237;45.586;13.782;2023-04-15T14:36:21;12.90;84.10
45491;DHT22;31237;45.586;13.782;2023-04-15T14:38:46;12.80;84.10
45491;DHT22;31237;45.586;13.782;2023-04-15T14:41:12;12.80;83.50
45491;DHT22;31237;45.586;13.782;2023-04-15T14:43:38;12.70;82.90
45491;DHT22;31237;45.586;13.782;2023-04-15T14:46:03;12.60;82.90
45491;DHT22;31237;45.586;13.782;2023-04-15T14:48:30;12.50;83.00
45491;DHT22;31237;45.586;13.782;2023-04-15T14:50:56;12.50;83.00
45491;DHT22;31237;45.586;13.782;2023-04-15T14:53:22;12.40;82.80
45491;DHT22;31237;45.586;13.782;2023-04-15T14:55:48;12.30;83.30
45491;DHT22;31237;45.586;13.782;2023-04-15T14:58:13;12.30;83.80
45491;DHT22;31237;45.586;13.782;2023-04-15T15:00:39;12.20;83.80
45491;DHT22;31237;45.586;13.782;2023-04-15T15:03:09;12.10;84.00
45491;DHT22;31237;45.586;13.782;2023-04-15T15:05:44;12.10;84.30
45491;DHT22;31237;45.586;13.782;2023-04-15T15:08:11;12.00;84.30
45491;DHT22;31237;45.586;13.782;2023-04-15T15:10:38;11.90;84.30
45491;DHT22;31237;45.586;13.782;2023-04-15T15:13:05;11.80;84.40
45491;DHT22;31237;45.586;13.782;2023-04-15T15:15:32;11.70;84.40
45491;DHT22;31237;45.586;13.782;2023-04-15T15:17:57;11.60;84.80
45491;DHT22;31237;45.586;13.782;2023-04-15T15:20:23;11.50;85.10
45491;DHT22;31237;45.586;13.782;2023-04-15T15:22:49;11.40;85.50
45491;DHT22;31237;45.586;13.782;2023-04-15T15:25:15;11.20;86.00
45491;DHT22;31237;45.586;13.782;2023-04-15T15:27:41;11.10;86.70
45491;DHT22;31237;45.586;13.782;2023-04-15T15:30:08;10.90;87.40